Time;durP1;ratioP1;P1;durP2;ratioP2;P2;SDS_P1;SDS_P2;PMS_P1;PMS_P2;Temp;Humidity;BMP_temperature;BMP_pressure;BME280_temperature;BME280_humidity;BME280_pressure;Samples;Min_cycle;Max_cycle;Signal;HPM_P1;HPM_P2
2020/12/30 00:01:27;;;;;;;9.43;7.90;;;4.70;99.90;;;;;;5071175;28;20440;-75
2020/12/30 00:03:53;;;;;;;10.30;7.63;;;4.70;99.90;;;;;;5070860;28;20465;-74
2020/12/30 00:06:19;;;;;;;14.97;9.23;;;4.60;99.90;;;;;;5072835;28;20437;-74
2020/12/30 00:08:46;;;;;;;10.47;8.20;;;4.60;99.90;;;;;;5071472;28;20437;-74
2020/12/30 00:11:12;;;;;;;10.97;9.20;;;4.60;99.90;;;;;;5075927;28;20492;-74
2020/12/30 00:13:38;;;;;;;8.27;7.47;;;4.60;99.90;;;;;;5052153;28;20441;-74
2020/12/30 00:16:04;;;;;;;9.40;7.33;;;4.60;99.90;;;;;;5054302;28;20473;-74
2020/12/30 00:18:29;;;;;;;10.90;8.90;;;4.60;99.90;;;;;;5073673;28;20938;-74
2020/12/30 00:20:56;;;;;;;8.73;7.73;;;4.60;99.90;;;;;;5074250;28;20625;-75
2020/12/30 00:23:23;;;;;;;9.20;8.30;;;4.60;99.90;;;;;;5070313;28;20314;-74
2020/12/30 00:25:49;;;;;;;10.67;8.07;;;4.60;99.90;;;;;;5052835;28;20441;-74
2020/12/30 00:28:14;;;;;;;10.50;8.30;;;4.60;99.90;;;;;;5072905;28;20437;-74
2020/12/30 00:30:40;;;;;;;9.03;8.00;;;4.60;99.90;;;;;;5071478;28;20478;-74
2020/12/30 00:33:05;;;;;;;9.37;7.80;;;4.60;99.90;;;;;;5070422;28;20191;-74
2020/12/30 00:35:31;;;;;;;13.23;8.33;;;4.60;99.90;;;;;;5072170;28;20180;-74
2020/12/30 00:37:56;;;;;;;12.40;8.53;;;4.60;99.90;;;;;;5070525;28;20554;-74
2020/12/30 00:40:22;;;;;;;12.07;8.23;;;4.60;99.90;;;;;;5070933;28;20543;-74
2020/12/30 00:42:47;;;;;;;8.53;7.70;;;4.60;99.90;;;;;;5069392;28;20207;-75
2020/12/30 00:45:13;;;;;;;9.30;8.30;;;4.50;99.90;;;;;;5071212;28;20210;-74
2020/12/30 00:47:38;;;;;;;10.37;8.57;;;4.50;99.90;;;;;;5072046;28;20548;-75
2020/12/30 00:50:05;;;;;;;9.87;8.87;;;4.50;99.90;;;;;;5060330;28;20582;-74
2020/12/30 00:52:31;;;;;;;11.30;8.20;;;4.50;99.90;;;;;;5070149;28;20219;-74
2020/12/30 00:54:56;;;;;;;10.90;8.70;;;4.50;99.90;;;;;;5069316;28;20434;-75
2020/12/30 00:57:22;;;;;;;10.13;9.07;;;4.60;99.90;;;;;;5053049;28;20196;-74
2020/12/30 00:59:47;;;;;;;9.20;8.23;;;4.60;99.90;;;;;;5053424;28;20270;-74
2020/12/30 01:02:13;;;;;;;9.13;8.13;;;4.70;99.90;;;;;;5069927;28;20199;-74
2020/12/30 01:04:38;;;;;;;9.47;7.93;;;4.70;99.90;;;;;;5072500;28;20200;-75
2020/12/30 01:07:04;;;;;;;10.17;9.27;;;4.70;99.90;;;;;;5068944;28;20268;-75
2020/12/30 01:09:30;;;;;;;11.07;8.50;;;4.70;99.90;;;;;;5072108;28;20680;-74
2020/12/30 01:12:00;;;;;;;9.77;8.77;;;4.70;99.90;;;;;;5070552;28;20245;-74
2020/12/30 01:14:25;;;;;;;9.47;8.47;;;4.70;99.90;;;;;;5071655;28;20187;-74
2020/12/30 01:16:52;;;;;;;9.00;8.10;;;4.70;99.90;;;;;;5070793;28;20974;-75
2020/12/30 01:19:19;;;;;;;9.73;8.83;;;4.70;99.90;;;;;;5083021;28;20218;-74
2020/12/30 01:21:45;;;;;;;8.57;7.77;;;4.60;99.90;;;;;;5069680;28;20430;-74
2020/12/30 01:24:10;;;;;;;9.30;8.37;;;4.60;99.90;;;;;;5051093;28;20484;-74
2020/12/30 01:26:37;;;;;;;9.23;8.33;;;4.60;99.90;;;;;;5068544;28;20784;-74
2020/12/30 01:29:04;;;;;;;10.43;9.30;;;4.60;99.90;;;;;;5069563;28;20199;-75
2020/12/30 01:31:31;;;;;;;9.43;8.40;;;4.60;99.90;;;;;;5069092;28;20539;-75
2020/12/30 01:33:57;;;;;;;10.00;8.40;;;4.60;99.90;;;;;;5062092;28;21085;-74
2020/12/30 01:36:24;;;;;;;12.07;8.57;;;4.50;99.90;;;;;;5070015;28;20437;-75
2020/12/30 01:38:50;;;;;;;10.37;9.00;;;4.50;99.90;;;;;;5068371;28;20755;-74
2020/12/30 01:41:17;;;;;;;11.73;9.63;;;4.50;99.90;;;;;;5071465;28;20446;-74
2020/12/30 01:43:59;;;;;;;16.10;9.47;;;4.50;99.90;;;;;;5069785;28;20476;-75
2020/12/30 01:46:42;;;;;;;10.07;8.90;;;4.50;99.90;;;;;;5070128;28;20432;-75
2020/12/30 01:49:28;;;;;;;10.53;9.27;;;4.50;99.90;;;;;;5075644;28;20446;-74
2020/12/30 01:51:55;;;;;;;11.77;9.23;;;4.50;99.90;;;;;;5068927;28;20814;-75
2020/12/30 01:54:21;;;;;;;10.47;9.37;;;4.50;99.90;;;;;;5068322;28;20613;-74
2020/12/30 01:56:47;;;;;;;10.87;8.87;;;4.50;99.90;;;;;;5056098;28;21004;-74
2020/12/30 01:59:16;;;;;;;12.77;9.30;;;4.50;99.90;;;;;;5073093;28;20183;-74
2020/12/30 02:01:44;;;;;;;11.20;10.10;;;4.60;99.90;;;;;;5069915;28;20434;-74
2020/12/30 02:04:11;;;;;;;12.30;9.47;;;4.60;99.90;;;;;;5068128;28;20473;-75
2020/12/30 02:06:37;;;;;;;10.60;9.50;;;4.60;99.90;;;;;;5052977;28;20433;-74
2020/12/30 02:09:04;;;;;;;11.27;10.20;;;4.60;99.90;;;;;;5053543;28;20449;-74
2020/12/30 02:11:31;;;;;;;14.73;10.03;;;4.60;99.90;;;;;;5075939;28;20926;-74
2020/12/30 02:14:08;;;;;;;13.60;12.10;;;4.60;99.90;;;;;;5071117;28;20432;-74
2020/12/30 02:16:48;;;;;;;12.40;11.20;;;4.50;99.90;;;;;;5051474;28;20502;-74
2020/12/30 02:19:14;;;;;;;11.57;10.33;;;4.50;99.90;;;;;;5076532;28;20448;-74
2020/12/30 02:21:40;;;;;;;12.40;10.37;;;4.50;99.90;;;;;;5067652;28;20445;-74
2020/12/30 02:24:09;;;;;;;11.67;10.30;;;4.50;99.90;;;;;;5071525;28;20508;-74
2020/12/30 02:26:34;;;;;;;12.00;10.57;;;4.50;99.90;;;;;;5058644;28;20555;-74
2020/12/30 02:29:00;;;;;;;12.50;10.93;;;4.50;99.90;;;;;;5071411;28;20934;-75
2020/12/30 02:31:27;;;;;;;13.73;12.00;;;4.50;99.90;;;;;;5069028;28;20274;-74
2020/12/30 02:33:53;;;;;;;11.90;10.67;;;4.50;99.90;;;;;;5068354;28;21010;-75
2020/12/30 02:36:18;;;;;;;13.77;12.20;;;4.60;99.90;;;;;;5051111;28;20540;-74
2020/12/30 02:38:44;;;;;;;12.23;10.70;;;4.60;99.90;;;;;;5050519;28;20263;-74
2020/12/30 02:41:09;;;;;;;12.97;11.67;;;4.60;99.90;;;;;;5061373;28;20184;-74
2020/12/30 02:43:35;;;;;;;17.43;13.40;;;4.60;99.90;;;;;;5067914;28;20196;-75
2020/12/30 02:46:01;;;;;;;16.33;12.40;;;4.70;99.90;;;;;;5071378;28;20184;-75
2020/12/30 02:48:27;;;;;;;17.20;12.03;;;4.70;99.90;;;;;;5068137;28;20188;-75
2020/12/30 02:50:53;;;;;;;21.80;12.60;;;4.70;99.90;;;;;;5069673;28;20466;-74
2020/12/30 02:53:19;;;;;;;23.30;15.90;;;4.70;99.90;;;;;;5067718;28;20176;-74
2020/12/30 02:55:44;;;;;;;30.73;19.07;;;4.70;99.90;;;;;;5072061;28;20449;-74
2020/12/30 02:58:10;;;;;;;31.33;18.43;;;4.70;99.90;;;;;;5068138;28;20471;-75
2020/12/30 03:00:35;;;;;;;21.07;14.00;;;4.60;99.90;;;;;;5071082;28;20236;-75
2020/12/30 03:03:01;;;;;;;16.20;12.97;;;4.60;99.90;;;;;;5067772;28;20695;-74
2020/12/30 03:05:27;;;;;;;14.30;12.47;;;4.70;99.90;;;;;;5051649;28;20194;-74
2020/12/30 03:07:52;;;;;;;15.10;11.80;;;4.70;99.90;;;;;;5054412;28;20187;-74
2020/12/30 03:10:18;;;;;;;13.87;12.37;;;4.70;99.90;;;;;;5070896;28;20187;-73
2020/12/30 03:12:43;;;;;;;14.50;13.10;;;4.70;99.90;;;;;;5072237;28;20282;-73
2020/12/30 03:15:09;;;;;;;13.67;12.27;;;4.70;99.90;;;;;;5073247;28;20214;-74
2020/12/30 03:17:34;;;;;;;14.40;12.90;;;4.70;99.90;;;;;;5074889;28;20190;-73
2020/12/30 03:20:00;;;;;;;15.33;13.77;;;4.70;99.90;;;;;;5079544;28;20223;-73
2020/12/30 03:22:25;;;;;;;16.03;12.63;;;4.60;99.90;;;;;;5075841;28;20183;-73
2020/12/30 03:24:51;;;;;;;16.83;14.67;;;4.60;99.90;;;;;;5053591;28;20231;-73
2020/12/30 03:27:16;;;;;;;15.63;14.03;;;4.50;99.90;;;;;;5076113;28;20191;-73
2020/12/30 03:29:41;;;;;;;16.63;13.80;;;4.40;99.90;;;;;;5056378;28;20192;-73
2020/12/30 03:32:07;;;;;;;15.47;13.80;;;4.40;99.90;;;;;;5073175;28;20778;-73
2020/12/30 03:34:32;;;;;;;15.90;14.30;;;4.30;99.90;;;;;;5072570;28;20294;-74
2020/12/30 03:36:58;;;;;;;16.50;14.80;;;4.20;99.90;;;;;;5071719;28;20213;-74
2020/12/30 03:39:23;;;;;;;17.70;14.83;;;4.20;99.90;;;;;;5075587;28;20187;-74
2020/12/30 03:41:49;;;;;;;15.43;13.77;;;4.20;99.90;;;;;;5054430;28;20184;-74
2020/12/30 03:44:15;;;;;;;15.10;13.43;;;4.20;99.90;;;;;;5054447;28;20252;-74
2020/12/30 03:46:40;;;;;;;17.17;14.30;;;4.20;99.90;;;;;;5072586;28;20180;-74
2020/12/30 03:49:05;;;;;;;16.60;14.33;;;4.20;99.90;;;;;;5058253;28;20532;-74
2020/12/30 03:51:31;;;;;;;16.80;14.00;;;4.20;99.90;;;;;;5069506;28;20191;-74
2020/12/30 03:53:56;;;;;;;14.83;13.23;;;4.20;99.90;;;;;;5072065;28;20190;-74
2020/12/30 03:56:22;;;;;;;14.77;13.37;;;4.20;99.90;;;;;;5071893;28;20264;-74
2020/12/30 03:58:47;;;;;;;15.37;13.77;;;4.20;99.90;;;;;;5072397;28;20644;-74
2020/12/30 04:01:13;;;;;;;15.70;13.97;;;4.10;99.90;;;;;;5071620;28;20673;-74
2020/12/30 04:03:38;;;;;;;14.90;13.43;;;4.10;99.90;;;;;;5071568;28;20200;-74
2020/12/30 04:06:04;;;;;;;15.43;13.80;;;4.00;99.90;;;;;;5072402;28;20198;-74
2020/12/30 04:08:29;;;;;;;21.67;15.17;;;3.90;99.90;;;;;;5054102;28;20187;-74
2020/12/30 04:10:55;;;;;;;18.17;15.20;;;3.90;99.90;;;;;;5074294;28;20602;-74
2020/12/30 04:13:20;;;;;;;19.17;16.00;;;3.90;99.90;;;;;;5054395;28;20554;-74
2020/12/30 04:15:46;;;;;;;18.90;15.53;;;3.80;99.90;;;;;;5054136;28;20172;-74
2020/12/30 04:18:12;;;;;;;19.70;14.90;;;3.80;99.90;;;;;;5075633;28;20203;-74
2020/12/30 04:20:38;;;;;;;16.83;14.30;;;3.80;99.90;;;;;;5074640;28;20264;-74
2020/12/30 04:23:03;;;;;;;18.63;16.23;;;3.70;99.90;;;;;;5054232;28;20731;-74
2020/12/30 04:25:29;;;;;;;17.13;15.30;;;3.70;99.90;;;;;;5061208;28;20560;-74
2020/12/30 04:27:54;;;;;;;20.60;16.10;;;3.60;99.90;;;;;;5077078;28;20194;-74
2020/12/30 04:30:20;;;;;;;18.63;15.50;;;3.60;99.90;;;;;;5070142;28;20223;-74
2020/12/30 04:32:45;;;;;;;16.97;15.20;;;3.50;99.90;;;;;;5071593;28;20236;-74
2020/12/30 04:35:11;;;;;;;19.63;16.17;;;3.50;99.90;;;;;;5070992;28;20365;-73
2020/12/30 04:37:36;;;;;;;20.20;16.03;;;3.50;99.90;;;;;;5070381;28;20666;-74
2020/12/30 04:40:03;;;;;;;18.67;15.43;;;3.40;99.90;;;;;;5074382;28;20196;-74
2020/12/30 04:42:33;;;;;;;18.70;16.00;;;3.40;99.90;;;;;;5052599;28;20568;-74
2020/12/30 04:45:03;;;;;;;20.33;16.40;;;3.40;99.90;;;;;;5069689;28;20828;-74
2020/12/30 04:47:30;;;;;;;18.90;15.70;;;3.30;99.90;;;;;;5054687;28;20437;-74
2020/12/30 04:49:58;;;;;;;20.70;15.47;;;3.30;99.90;;;;;;5060909;28;20467;-74
2020/12/30 04:52:27;;;;;;;19.83;17.57;;;3.30;99.90;;;;;;5070134;28;20440;-74
2020/12/30 04:54:52;;;;;;;22.13;16.70;;;3.30;99.90;;;;;;5070076;28;20509;-74
2020/12/30 04:57:41;;;;;;;21.33;16.77;;;3.20;99.90;;;;;;5054392;28;20437;-74
2020/12/30 05:00:07;;;;;;;20.03;17.30;;;3.20;99.90;;;;;;5070377;28;20444;-74
2020/12/30 05:02:34;;;;;;;23.10;17.93;;;3.20;99.90;;;;;;5069754;28;20437;-74
2020/12/30 05:05:00;;;;;;;22.13;18.70;;;3.20;99.90;;;;;;5070160;28;20248;-74
2020/12/30 05:07:28;;;;;;;22.60;17.57;;;3.20;99.90;;;;;;5051405;28;20453;-74
2020/12/30 05:09:55;;;;;;;18.10;15.40;;;3.10;99.90;;;;;;5074443;28;20862;-74
2020/12/30 05:12:21;;;;;;;23.43;18.30;;;3.10;99.90;;;;;;5069522;28;20855;-74
2020/12/30 05:14:47;;;;;;;20.80;17.43;;;3.10;99.90;;;;;;5069437;28;20435;-74
2020/12/30 05:17:14;;;;;;;26.20;18.73;;;3.10;99.90;;;;;;5070172;28;20793;-74
2020/12/30 05:19:41;;;;;;;21.40;17.90;;;3.10;99.90;;;;;;5080754;28;20524;-74
2020/12/30 05:22:06;;;;;;;22.27;19.20;;;3.10;99.90;;;;;;5072897;28;20829;-74
2020/12/30 05:24:32;;;;;;;24.50;17.17;;;3.10;99.90;;;;;;5051899;28;20470;-74
2020/12/30 05:26:59;;;;;;;21.90;17.67;;;3.10;99.90;;;;;;5056476;28;20197;-74
2020/12/30 05:29:25;;;;;;;20.93;17.37;;;3.20;99.90;;;;;;5072540;28;20973;-74
2020/12/30 05:31:52;;;;;;;20.10;17.10;;;3.20;99.90;;;;;;5053670;28;20517;-74
2020/12/30 05:34:19;;;;;;;22.27;17.80;;;3.20;99.90;;;;;;5069892;28;20437;-74
2020/12/30 05:36:46;;;;;;;19.80;16.37;;;3.20;99.90;;;;;;5068140;28;20432;-74
2020/12/30 05:39:34;;;;;;;20.50;16.80;;;3.20;99.90;;;;;;5073153;28;20489;-74
2020/12/30 05:42:16;;;;;;;19.30;16.10;;;3.20;99.90;;;;;;5068644;28;20829;-74
2020/12/30 05:44:43;;;;;;;22.50;17.87;;;3.30;99.90;;;;;;5069992;28;20473;-74
2020/12/30 05:47:13;;;;;;;19.90;15.67;;;3.30;99.90;;;;;;5058642;28;20488;-74
2020/12/30 05:49:39;;;;;;;18.20;15.80;;;3.40;99.90;;;;;;5069499;28;20450;-74
2020/12/30 05:52:12;;;;;;;19.37;15.10;;;3.50;99.90;;;;;;5072012;28;20466;-74
2020/12/30 05:54:38;;;;;;;20.57;16.20;;;3.60;99.90;;;;;;5070571;28;20516;-74
2020/12/30 05:57:29;;;;;;;18.50;14.63;;;3.60;99.90;;;;;;5051804;28;20831;-74
2020/12/30 06:00:03;;;;;;;16.27;14.63;;;3.60;99.90;;;;;;5069471;28;20184;-74
2020/12/30 06:02:31;;;;;;;22.43;15.93;;;3.60;99.90;;;;;;5070010;28;20447;-74
2020/12/30 06:05:08;;;;;;;16.57;14.20;;;3.70;99.90;;;;;;5068336;28;20469;-74
2020/12/30 06:07:37;;;;;;;19.73;15.17;;;3.60;99.90;;;;;;5069824;28;20444;-74
2020/12/30 06:10:04;;;;;;;18.73;15.40;;;3.60;99.90;;;;;;5050801;28;20499;-74
2020/12/30 06:12:31;;;;;;;17.73;13.50;;;3.60;99.90;;;;;;5069540;28;20476;-74
2020/12/30 06:14:57;;;;;;;19.13;14.63;;;3.70;99.90;;;;;;5050927;28;20790;-74
2020/12/30 06:17:27;;;;;;;17.97;15.10;;;3.70;99.90;;;;;;5051639;28;20428;-74
2020/12/30 06:19:54;;;;;;;21.37;16.77;;;3.70;99.90;;;;;;5078706;28;20207;-74
2020/12/30 06:22:21;;;;;;;18.07;15.70;;;3.70;99.90;;;;;;5069725;28;20440;-74
2020/12/30 06:24:50;;;;;;;18.73;14.50;;;3.70;99.90;;;;;;5070097;28;20469;-74
2020/12/30 06:27:19;;;;;;;17.00;14.03;;;3.80;99.90;;;;;;5048389;28;20460;-74
2020/12/30 06:29:46;;;;;;;18.83;16.63;;;3.80;99.90;;;;;;5069290;28;20438;-74
2020/12/30 06:32:23;;;;;;;18.40;16.17;;;3.80;99.90;;;;;;5068455;28;20437;-74
2020/12/30 06:34:49;;;;;;;19.63;16.03;;;3.80;99.90;;;;;;5071323;28;20460;-74
2020/12/30 06:37:14;;;;;;;18.17;16.27;;;3.90;99.90;;;;;;5052596;28;20799;-74
2020/12/30 06:39:40;;;;;;;16.43;14.47;;;3.90;99.90;;;;;;5075992;28;20238;-74
2020/12/30 06:42:05;;;;;;;18.20;15.33;;;4.00;99.90;;;;;;5069049;28;20271;-74
2020/12/30 06:44:43;;;;;;;18.77;15.10;;;4.00;99.90;;;;;;5074242;28;20277;-74
2020/12/30 06:47:10;;;;;;;18.13;15.40;;;4.00;99.90;;;;;;5072580;28;20202;-74
2020/12/30 06:49:36;;;;;;;18.40;15.13;;;4.10;99.90;;;;;;5073070;28;20442;-74
2020/12/30 06:52:01;;;;;;;17.67;15.40;;;4.10;99.90;;;;;;5075887;28;20527;-74
2020/12/30 06:54:46;;;;;;;16.73;14.70;;;4.20;99.90;;;;;;5072510;28;20195;-74
2020/12/30 06:57:36;;;;;;;18.07;15.17;;;4.20;99.90;;;;;;5081261;28;20543;-74
2020/12/30 07:00:34;;;;;;;16.63;14.93;;;4.20;99.90;;;;;;5054928;28;20437;-74
2020/12/30 07:03:32;;;;;;;20.13;16.20;;;4.30;99.90;;;;;;5071516;28;20445;-74
2020/12/30 07:06:25;;;;;;;22.23;17.77;;;4.30;99.90;;;;;;5057275;28;20553;-74
2020/12/30 07:08:51;;;;;;;20.40;16.00;;;4.40;99.90;;;;;;5053821;28;20456;-74
2020/12/30 07:11:44;;;;;;;19.80;15.10;;;4.40;99.90;;;;;;5071769;28;20429;-74
2020/12/30 07:14:15;;;;;;;20.03;16.10;;;4.40;99.90;;;;;;5063894;28;20448;-74
2020/12/30 07:16:49;;;;;;;19.57;15.37;;;4.40;99.90;;;;;;5071964;28;20430;-74
2020/12/30 07:19:17;;;;;;;17.87;16.03;;;4.40;99.90;;;;;;5074110;28;20468;-74
2020/12/30 07:21:50;;;;;;;19.17;16.50;;;4.40;99.90;;;;;;5072565;28;20463;-74
2020/12/30 07:24:23;;;;;;;22.17;16.80;;;4.40;99.90;;;;;;5074501;28;20911;-74
2020/12/30 07:26:52;;;;;;;20.27;16.43;;;4.40;99.90;;;;;;5074534;28;20481;-74
2020/12/30 07:29:18;;;;;;;23.77;16.40;;;4.30;99.90;;;;;;5075265;28;20430;-74
2020/12/30 07:31:48;;;;;;;19.67;17.57;;;4.40;99.90;;;;;;5073121;28;20533;-74
2020/12/30 07:34:28;;;;;;;18.53;16.40;;;4.40;99.90;;;;;;5055666;28;20278;-74
2020/12/30 07:36:54;;;;;;;19.63;16.93;;;4.40;99.90;;;;;;5051814;28;20433;-74
2020/12/30 07:39:23;;;;;;;16.83;14.13;;;4.30;99.90;;;;;;5075149;28;20437;-74
2020/12/30 07:41:49;;;;;;;18.43;15.20;;;4.30;99.90;;;;;;5052744;28;20844;-74
2020/12/30 07:44:15;;;;;;;18.90;16.60;;;4.30;99.90;;;;;;5072343;28;20512;-73
2020/12/30 07:46:42;;;;;;;20.27;17.23;;;4.40;99.90;;;;;;5072408;28;20303;-74
2020/12/30 07:49:09;;;;;;;20.77;16.37;;;4.40;99.90;;;;;;5078189;28;20434;-74
2020/12/30 07:51:35;;;;;;;18.90;16.23;;;4.50;99.90;;;;;;5053717;28;20449;-74
2020/12/30 07:54:01;;;;;;;20.27;16.43;;;4.50;99.90;;;;;;5071241;28;20872;-74
2020/12/30 07:56:27;;;;;;;18.73;14.73;;;4.50;99.90;;;;;;5069730;28;20219;-74
2020/12/30 07:58:52;;;;;;;17.73;15.10;;;4.60;99.90;;;;;;5071017;28;20199;-74
2020/12/30 08:01:19;;;;;;;18.57;15.40;;;4.60;99.90;;;;;;5071257;28;20187;-74
2020/12/30 08:03:46;;;;;;;21.33;16.80;;;4.50;99.90;;;;;;5071636;28;20598;-74
2020/12/30 08:06:13;;;;;;;19.63;17.60;;;4.60;99.90;;;;;;5072301;28;20438;-74
2020/12/30 08:08:47;;;;;;;21.00;16.20;;;4.60;99.90;;;;;;5052269;28;20506;-74
2020/12/30 08:11:19;;;;;;;20.60;16.10;;;4.60;99.90;;;;;;5058573;28;20447;-74
2020/12/30 08:13:45;;;;;;;20.20;15.50;;;4.60;99.90;;;;;;5070979;28;21000;-74
2020/12/30 08:16:12;;;;;;;16.70;15.00;;;4.60;99.90;;;;;;5071265;28;20428;-74
2020/12/30 08:18:51;;;;;;;17.67;15.20;;;4.60;99.90;;;;;;5056088;28;20442;-74
2020/12/30 08:21:22;;;;;;;17.07;15.10;;;4.60;99.90;;;;;;5072871;28;20536;-74
2020/12/30 08:23:47;;;;;;;18.80;15.83;;;4.70;99.90;;;;;;5071037;28;20549;-74
2020/12/30 08:26:13;;;;;;;21.23;16.30;;;4.70;99.90;;;;;;5051952;28;20930;-74
2020/12/30 08:28:40;;;;;;;20.13;16.53;;;4.70;99.90;;;;;;5052244;28;20325;-74
2020/12/30 08:31:15;;;;;;;18.83;16.73;;;4.70;99.90;;;;;;5071552;28;20185;-74
2020/12/30 08:33:41;;;;;;;22.80;17.10;;;4.70;99.90;;;;;;5052083;28;20440;-74
2020/12/30 08:36:21;;;;;;;18.80;16.53;;;4.70;99.90;;;;;;5053261;28;20461;-74
2020/12/30 08:38:50;;;;;;;20.03;16.77;;;4.70;99.90;;;;;;5074063;28;20626;-74
2020/12/30 08:41:18;;;;;;;19.37;16.43;;;4.70;99.90;;;;;;5077652;28;20437;-74
2020/12/30 08:43:49;;;;;;;21.27;16.17;;;4.70;99.90;;;;;;5064869;28;20929;-74
2020/12/30 08:46:24;;;;;;;19.87;16.60;;;4.70;99.90;;;;;;5070789;28;20783;-74
2020/12/30 08:48:51;;;;;;;22.17;16.50;;;4.70;99.90;;;;;;5073843;28;20524;-74
2020/12/30 08:51:25;;;;;;;23.50;18.23;;;4.70;99.90;;;;;;5051457;28;20489;-74
2020/12/30 08:53:54;;;;;;;22.33;16.93;;;4.70;99.90;;;;;;5072716;28;20547;-74
2020/12/30 08:56:20;;;;;;;23.13;17.07;;;4.80;99.90;;;;;;5070710;28;20458;-74
2020/12/30 08:58:57;;;;;;;19.67;16.27;;;4.80;99.90;;;;;;5052038;28;20441;-74
2020/12/30 09:01:24;;;;;;;19.20;17.13;;;4.80;99.90;;;;;;5071550;28;20511;-74
2020/12/30 09:03:50;;;;;;;19.93;17.00;;;4.80;99.90;;;;;;5070569;28;20888;-74
2020/12/30 09:06:27;;;;;;;21.23;18.30;;;4.80;99.90;;;;;;5069181;28;20449;-74
2020/12/30 09:08:53;;;;;;;24.67;18.23;;;4.90;99.90;;;;;;5070579;28;20436;-74
2020/12/30 09:11:18;;;;;;;22.10;18.80;;;4.90;99.90;;;;;;5070788;28;20429;-74
2020/12/30 09:13:44;;;;;;;22.40;18.23;;;4.90;99.90;;;;;;5070848;28;20244;-74
2020/12/30 09:16:10;;;;;;;25.20;18.73;;;4.90;99.90;;;;;;5072359;28;20562;-73
2020/12/30 09:18:36;;;;;;;18.20;16.20;;;4.90;99.90;;;;;;5072699;28;20187;-73
2020/12/30 09:21:03;;;;;;;24.40;18.70;;;4.90;99.90;;;;;;5069782;28;20476;-73
2020/12/30 09:23:29;;;;;;;20.97;18.23;;;4.90;99.90;;;;;;5069039;28;20550;-73
2020/12/30 09:25:56;;;;;;;21.80;18.13;;;5.00;99.90;;;;;;5069026;28;20446;-73
2020/12/30 09:28:23;;;;;;;19.37;17.27;;;5.00;99.90;;;;;;5076114;28;20437;-73
2020/12/30 09:30:52;;;;;;;19.33;16.43;;;5.00;99.90;;;;;;5070204;28;20840;-73
2020/12/30 09:33:20;;;;;;;20.90;18.10;;;5.00;99.90;;;;;;5069134;28;20436;-73
2020/12/30 09:35:46;;;;;;;20.47;16.87;;;5.00;99.90;;;;;;5072454;28;21133;-74
2020/12/30 09:38:24;;;;;;;20.50;17.83;;;5.00;99.90;;;;;;5069854;28;20870;-74
2020/12/30 09:40:55;;;;;;;19.33;16.97;;;5.00;99.90;;;;;;5075243;28;20650;-73
2020/12/30 09:43:22;;;;;;;18.80;16.87;;;4.90;99.90;;;;;;5070581;28;20473;-74
2020/12/30 09:45:54;;;;;;;20.20;16.80;;;4.90;99.90;;;;;;5052213;28;20457;-74
2020/12/30 09:48:20;;;;;;;18.40;16.33;;;4.90;99.90;;;;;;5073616;28;20438;-73
2020/12/30 09:50:48;;;;;;;21.97;17.50;;;4.80;99.90;;;;;;5068703;28;20434;-73
2020/12/30 09:53:14;;;;;;;20.50;16.93;;;4.80;99.90;;;;;;5070927;28;20241;-74
2020/12/30 09:55:53;;;;;;;25.03;19.23;;;4.70;99.90;;;;;;5070527;28;20445;-73
2020/12/30 09:58:18;;;;;;;20.63;17.80;;;4.70;99.90;;;;;;5070754;28;20851;-74
2020/12/30 10:00:44;;;;;;;23.10;18.90;;;4.70;99.90;;;;;;5069287;28;20445;-73
2020/12/30 10:03:10;;;;;;;23.87;17.60;;;4.60;99.90;;;;;;5068490;28;20956;-73
2020/12/30 10:05:35;;;;;;;24.90;19.17;;;4.60;99.90;;;;;;5068713;28;20195;-73
2020/12/30 10:08:01;;;;;;;21.40;18.70;;;4.60;99.90;;;;;;5069408;28;20199;-74
2020/12/30 10:10:27;;;;;;;22.17;18.57;;;4.50;99.90;;;;;;5069354;28;20187;-73
2020/12/30 10:12:52;;;;;;;23.10;18.77;;;4.40;99.90;;;;;;5069484;28;20547;-73
2020/12/30 10:15:19;;;;;;;20.40;16.80;;;4.40;99.90;;;;;;5056653;28;20214;-73
2020/12/30 10:17:44;;;;;;;20.07;16.80;;;4.40;99.90;;;;;;5074128;28;20179;-73
2020/12/30 10:20:11;;;;;;;20.53;17.07;;;4.40;99.90;;;;;;5071084;28;20569;-73
2020/12/30 10:22:38;;;;;;;23.37;17.83;;;4.40;99.90;;;;;;5073535;28;20430;-74
2020/12/30 10:25:04;;;;;;;22.27;18.83;;;4.40;99.90;;;;;;5073376;28;20965;-73
2020/12/30 10:27:30;;;;;;;26.03;20.50;;;4.40;99.90;;;;;;5057338;28;20456;-74
2020/12/30 10:29:55;;;;;;;24.40;18.20;;;4.40;99.90;;;;;;5073180;28;20438;-73
2020/12/30 10:32:21;;;;;;;21.90;18.30;;;4.40;99.90;;;;;;5055259;28;20203;-73
2020/12/30 10:34:48;;;;;;;24.97;20.87;;;4.40;99.90;;;;;;5074940;28;20202;-73
2020/12/30 10:37:16;;;;;;;22.27;18.70;;;4.50;99.90;;;;;;5072703;28;20199;-73
2020/12/30 10:39:43;;;;;;;27.47;19.50;;;4.50;99.90;;;;;;5078098;28;20453;-73
2020/12/30 10:42:09;;;;;;;23.33;19.50;;;4.50;99.90;;;;;;5071442;28;20644;-73
2020/12/30 10:44:34;;;;;;;23.13;17.83;;;4.50;99.90;;;;;;5080518;28;20949;-73
2020/12/30 10:47:00;;;;;;;23.57;19.13;;;4.60;99.90;;;;;;5071757;28;20522;-73
2020/12/30 10:49:25;;;;;;;22.73;18.57;;;4.50;99.90;;;;;;5055329;28;20201;-74
2020/12/30 10:51:51;;;;;;;22.77;18.63;;;4.50;99.90;;;;;;5057942;28;20546;-74
2020/12/30 10:54:17;;;;;;;23.33;18.60;;;4.60;99.90;;;;;;5072294;28;20261;-73
2020/12/30 10:56:47;;;;;;;25.00;18.67;;;4.60;99.90;;;;;;5056700;28;20729;-73
2020/12/30 10:59:12;;;;;;;29.57;18.20;;;4.60;99.90;;;;;;5072548;28;20429;-73
2020/12/30 11:01:38;;;;;;;23.47;19.23;;;4.70;99.90;;;;;;5071999;28;20587;-73
2020/12/30 11:04:03;;;;;;;21.30;19.00;;;4.80;99.90;;;;;;5071082;28;20220;-74
2020/12/30 11:06:29;;;;;;;23.83;18.83;;;4.80;99.90;;;;;;5055136;28;20707;-74
2020/12/30 11:08:54;;;;;;;24.97;19.57;;;4.90;99.90;;;;;;5071896;28;20194;-74
2020/12/30 11:11:20;;;;;;;21.77;18.60;;;5.00;99.90;;;;;;5072616;28;20267;-73
2020/12/30 11:13:45;;;;;;;22.77;17.30;;;5.00;99.90;;;;;;5071499;28;20206;-74
2020/12/30 11:16:11;;;;;;;24.27;18.67;;;5.10;99.90;;;;;;5071444;28;20567;-73
2020/12/30 11:18:36;;;;;;;22.13;16.87;;;5.10;99.90;;;;;;5055783;28;20191;-73
2020/12/30 11:21:02;;;;;;;23.40;20.50;;;5.20;99.90;;;;;;5071363;28;20296;-74
2020/12/30 11:23:27;;;;;;;21.90;18.53;;;5.20;99.90;;;;;;5072631;28;20302;-74
2020/12/30 11:25:54;;;;;;;21.80;17.27;;;5.20;99.90;;;;;;5072097;28;20221;-74
2020/12/30 11:28:20;;;;;;;22.17;18.03;;;5.30;99.90;;;;;;5058113;28;20285;-73
2020/12/30 11:30:46;;;;;;;19.80;17.53;;;5.30;99.90;;;;;;5053517;28;20449;-74
2020/12/30 11:33:11;;;;;;;22.47;16.70;;;5.30;99.90;;;;;;5074526;28;20883;-74
2020/12/30 11:35:38;;;;;;;21.60;17.20;;;5.40;99.90;;;;;;5071557;28;20188;-73
2020/12/30 11:38:04;;;;;;;19.13;16.30;;;5.40;99.90;;;;;;5071929;28;20219;-74
2020/12/30 11:40:30;;;;;;;18.50;16.37;;;5.40;99.90;;;;;;5062566;28;20918;-73
2020/12/30 11:42:55;;;;;;;20.53;16.40;;;5.40;99.90;;;;;;5071142;28;20553;-74
2020/12/30 11:45:21;;;;;;;20.10;15.90;;;5.50;99.90;;;;;;5061035;28;20214;-74
2020/12/30 11:47:47;;;;;;;24.03;18.37;;;5.50;99.90;;;;;;5078251;28;20634;-74
2020/12/30 11:50:14;;;;;;;23.63;18.43;;;5.50;99.90;;;;;;5070331;28;20594;-73
2020/12/30 11:52:40;;;;;;;21.30;16.87;;;5.50;99.90;;;;;;5071575;28;20437;-73
2020/12/30 11:55:06;;;;;;;18.43;15.83;;;5.50;99.90;;;;;;5072765;28;20794;-73
2020/12/30 11:57:32;;;;;;;20.27;14.73;;;5.50;99.90;;;;;;5071479;28;20441;-73
2020/12/30 11:59:57;;;;;;;19.87;16.20;;;5.60;99.90;;;;;;5074747;28;20242;-74
2020/12/30 12:02:23;;;;;;;20.10;16.57;;;5.60;99.90;;;;;;5064153;28;20599;-74
2020/12/30 12:04:48;;;;;;;19.03;14.50;;;5.60;99.90;;;;;;5052510;28;20587;-74
2020/12/30 12:07:14;;;;;;;22.10;16.93;;;5.60;99.90;;;;;;5054872;28;20846;-74
2020/12/30 12:09:40;;;;;;;17.80;15.27;;;5.60;99.90;;;;;;5072355;28;20214;-74
2020/12/30 12:12:05;;;;;;;22.53;15.80;;;5.60;99.90;;;;;;5071178;28;20763;-74
2020/12/30 12:14:31;;;;;;;25.00;16.40;;;5.60;99.90;;;;;;5070206;28;20282;-74
2020/12/30 12:16:57;;;;;;;18.20;15.63;;;5.60;99.90;;;;;;5053680;28;20187;-74
2020/12/30 12:19:24;;;;;;;21.77;17.93;;;5.70;99.90;;;;;;5058017;28;20208;-74
2020/12/30 12:21:50;;;;;;;19.20;15.53;;;5.70;99.90;;;;;;5070651;28;20449;-74
2020/12/30 12:24:16;;;;;;;18.90;15.13;;;5.70;99.90;;;;;;5072006;28;20518;-74
2020/12/30 12:26:42;;;;;;;16.70;13.43;;;5.80;99.90;;;;;;5060093;28;20445;-73
2020/12/30 12:29:22;;;;;;;19.83;15.23;;;5.70;99.90;;;;;;5070266;28;20946;-74
2020/12/30 12:32:05;;;;;;;17.50;15.13;;;5.70;99.90;;;;;;5070845;28;20195;-73
2020/12/30 12:34:32;;;;;;;18.73;14.77;;;5.70;99.90;;;;;;5071079;28;21060;-73
2020/12/30 12:36:58;;;;;;;17.10;14.77;;;5.70;99.90;;;;;;5079525;28;20437;-74
2020/12/30 12:39:23;;;;;;;17.27;14.43;;;5.70;99.90;;;;;;5056267;28;20894;-74
2020/12/30 12:41:53;;;;;;;16.27;14.53;;;5.80;99.90;;;;;;5069543;28;20266;-73